PWSweather.com
Personal Weather Stations
Station Observations
ISANTACA4
Capoeiras Weather Station, Florianopolis, SC 88070450

Capoeiras Weather StationFlorianopolis, SC 88070450

Lat: -27.596, Lon: -48.588

Elevation: 133

Station Type: Oregon WMR 928NX

Latest ConditionsUpdated 4:00:01 PM GMT-03:57 Friday, Oct 31, 2014
Currently Today's Max Today's Min Today's Average
Temperature 79.7°F26.5°C 79.7°F26.5°C 71.2°F21.8°C 74.0°F23.3°C
Dew Point 70.7°F21.5°C 70.7°F21.5°C 67.6°F19.8°C 69.0°F20.6°C
Winds 3.0 mph ENE4.8 kmh ENE 5.0 mph SW8.0 kmh SW - 2.3 mph 3.7 kmh
Wind Gusts 7.0 mph11.3 kmh 13.0 mph20.9 kmh - -
Humidity 74% 91% 72% 85%
Pressure 29.88 in1011.9 mb 29.95 in1014.2 mb 29.85 in1010.8 mb -
Precipitation - 0.04 in1.0 mm - -
Hour Temp Dew Point Humidity Winds Wind Gusts Pressure Precip Precip Rate Daily Precip Total
04:00 PM 79.7°F26.5°C 70.7°F21.5°C 74% 3.0 mph ENE4.8 kmh ENE 7.0 mph11.3 kmh 29.88 in1011.9 mb 0.00 in0.0 mm 0.00 in/hr0.0 mm/hr 0.04 in1.0 mm
03:45 PM 79.0°F26.1°C 70.0°F21.1°C 74% 4.0 mph ENE6.4 kmh ENE 8.0 mph12.9 kmh 29.88 in1011.9 mb 0.00 in0.0 mm 0.00 in/hr0.0 mm/hr 0.04 in1.0 mm
03:30 PM 78.3°F25.7°C 70.1°F21.2°C 76% 5.0 mph ENE8.0 kmh ENE 9.0 mph14.5 kmh 29.89 in1012.2 mb 0.00 in0.0 mm 0.00 in/hr0.0 mm/hr 0.04 in1.0 mm
03:15 PM 78.6°F25.9°C 68.8°F20.4°C 72% 5.0 mph ENE8.0 kmh ENE 8.0 mph12.9 kmh 29.89 in1012.2 mb 0.00 in0.0 mm 0.00 in/hr0.0 mm/hr 0.04 in1.0 mm
03:00 PM 79.0°F26.1°C 70.4°F21.3°C 75% 5.0 mph ENE8.0 kmh ENE 7.0 mph11.3 kmh 29.90 in1012.5 mb 0.00 in0.0 mm 0.00 in/hr0.0 mm/hr 0.04 in1.0 mm
02:45 PM 78.6°F25.9°C 70.4°F21.3°C 76% 5.0 mph ENE8.0 kmh ENE 9.0 mph14.5 kmh 29.90 in1012.5 mb 0.00 in0.0 mm 0.00 in/hr0.0 mm/hr 0.04 in1.0 mm
02:30 PM 78.1°F25.6°C 70.3°F21.3°C 77% 4.0 mph NE6.4 kmh NE 8.0 mph12.9 kmh 29.91 in1012.9 mb 0.00 in0.0 mm 0.00 in/hr0.0 mm/hr 0.04 in1.0 mm
02:15 PM 77.5°F25.3°C 70.5°F21.4°C 79% 4.0 mph N6.4 kmh N 9.0 mph14.5 kmh 29.91 in1012.9 mb 0.00 in0.0 mm 0.00 in/hr0.0 mm/hr 0.04 in1.0 mm
02:00 PM 77.5°F25.3°C 70.5°F21.4°C 79% 3.0 mph N4.8 kmh N 8.0 mph12.9 kmh 29.91 in1012.9 mb 0.00 in0.0 mm 0.00 in/hr0.0 mm/hr 0.04 in1.0 mm
01:45 PM 77.2°F25.1°C 70.5°F21.4°C 80% 2.0 mph NNE3.2 kmh NNE 5.0 mph8.0 kmh 29.91 in1012.9 mb 0.00 in0.0 mm 0.00 in/hr0.0 mm/hr 0.04 in1.0 mm
01:30 PM 76.6°F24.8°C 70.0°F21.1°C 80% 3.0 mph NE4.8 kmh NE 7.0 mph11.3 kmh 29.90 in1012.5 mb 0.00 in0.0 mm 0.00 in/hr0.0 mm/hr 0.04 in1.0 mm
01:15 PM 75.9°F24.4°C 69.7°F20.9°C 81% 3.0 mph NE4.8 kmh NE 9.0 mph14.5 kmh 29.91 in1012.9 mb 0.00 in0.0 mm 0.00 in/hr0.0 mm/hr 0.04 in1.0 mm
01:00 PM 75.6°F24.2°C 70.0°F21.1°C 83% 4.0 mph NE6.4 kmh NE 9.0 mph14.5 kmh 29.92 in1013.2 mb 0.00 in0.0 mm 0.00 in/hr0.0 mm/hr 0.04 in1.0 mm
12:45 PM 75.6°F24.2°C 70.0°F21.1°C 83% 5.0 mph NE8.0 kmh NE 7.0 mph11.3 kmh 29.92 in1013.2 mb 0.00 in0.0 mm 0.00 in/hr0.0 mm/hr 0.04 in1.0 mm
12:30 PM 75.7°F24.3°C 70.6°F21.4°C 84% 2.0 mph ESE3.2 kmh ESE 5.0 mph8.0 kmh 29.93 in1013.5 mb 0.00 in0.0 mm 0.00 in/hr0.0 mm/hr 0.04 in1.0 mm
12:15 PM 75.4°F24.1°C 70.6°F21.4°C 85% 1.0 mph SSE1.6 kmh SSE 6.0 mph9.7 kmh 29.93 in1013.5 mb 0.00 in0.0 mm 0.00 in/hr0.0 mm/hr 0.04 in1.0 mm
12:00 PM 74.7°F23.7°C 69.5°F20.8°C 84% Calm Calm -- 29.93 in1013.5 mb 0.00 in0.0 mm 0.00 in/hr0.0 mm/hr 0.04 in1.0 mm
11:45 AM 74.3°F23.5°C 68.8°F20.4°C 83% Calm Calm -- 29.93 in1013.5 mb 0.00 in0.0 mm 0.00 in/hr0.0 mm/hr 0.04 in1.0 mm
11:30 AM 74.1°F23.4°C 69.0°F20.6°C 84% Calm Calm 1.0 mph1.6 kmh 29.93 in1013.5 mb 0.00 in0.0 mm 0.00 in/hr0.0 mm/hr 0.04 in1.0 mm
11:15 AM 74.1°F23.4°C 69.3°F20.7°C 85% 2.0 mph SSE3.2 kmh SSE 2.0 mph3.2 kmh 29.93 in1013.5 mb 0.00 in0.0 mm 0.00 in/hr0.0 mm/hr 0.04 in1.0 mm
11:00 AM 74.3°F23.5°C 69.5°F20.8°C 85% 1.0 mph SSE1.6 kmh SSE 3.0 mph4.8 kmh 29.94 in1013.9 mb 0.00 in0.0 mm 0.00 in/hr0.0 mm/hr 0.04 in1.0 mm
10:45 AM 74.1°F23.4°C 70.0°F21.1°C 87% 2.0 mph SSE3.2 kmh SSE 4.0 mph6.4 kmh 29.94 in1013.9 mb 0.00 in0.0 mm 0.00 in/hr0.0 mm/hr 0.04 in1.0 mm
10:30 AM 74.1°F23.4°C 70.3°F21.3°C 88% 2.0 mph SSE3.2 kmh SSE 6.0 mph9.7 kmh 29.94 in1013.9 mb 0.00 in0.0 mm 0.00 in/hr0.0 mm/hr 0.04 in1.0 mm
10:15 AM 73.9°F23.3°C 70.2°F21.2°C 88% 2.0 mph SE3.2 kmh SE 8.0 mph12.9 kmh 29.93 in1013.5 mb 0.00 in0.0 mm 0.00 in/hr0.0 mm/hr 0.04 in1.0 mm
10:00 AM 73.9°F23.3°C 69.5°F20.8°C 86% 2.0 mph SSE3.2 kmh SSE 8.0 mph12.9 kmh 29.93 in1013.5 mb 0.00 in0.0 mm 0.00 in/hr0.0 mm/hr 0.04 in1.0 mm
09:45 AM 73.9°F23.3°C 69.5°F20.8°C 86% 3.0 mph S4.8 kmh S 4.0 mph6.4 kmh 29.95 in1014.2 mb 0.00 in0.0 mm 0.00 in/hr0.0 mm/hr 0.04 in1.0 mm
09:30 AM 73.4°F23.0°C 69.3°F20.7°C 87% 3.0 mph S4.8 kmh S 8.0 mph12.9 kmh 29.95 in1014.2 mb 0.00 in0.0 mm 0.00 in/hr0.0 mm/hr 0.04 in1.0 mm
09:15 AM 72.9°F22.7°C 68.8°F20.4°C 87% 4.0 mph S6.4 kmh S 8.0 mph12.9 kmh 29.95 in1014.2 mb 0.00 in0.0 mm 0.00 in/hr0.0 mm/hr 0.04 in1.0 mm
09:00 AM 72.5°F22.5°C 68.4°F20.2°C 87% 4.0 mph SSW6.4 kmh SSW 8.0 mph12.9 kmh 29.95 in1014.2 mb 0.00 in0.0 mm 0.00 in/hr0.0 mm/hr 0.04 in1.0 mm
08:45 AM 72.3°F22.4°C 68.2°F20.1°C 87% 4.0 mph SSW6.4 kmh SSW 13.0 mph20.9 kmh 29.94 in1013.9 mb 0.00 in0.0 mm 0.00 in/hr0.0 mm/hr 0.04 in1.0 mm
08:30 AM 72.5°F22.5°C 68.4°F20.2°C 87% 3.0 mph SW4.8 kmh SW 3.0 mph4.8 kmh 29.94 in1013.9 mb 0.00 in0.0 mm 0.00 in/hr0.0 mm/hr 0.04 in1.0 mm
08:15 AM 72.3°F22.4°C 68.6°F20.3°C 88% 3.0 mph SSW4.8 kmh SSW 11.0 mph17.7 kmh 29.93 in1013.5 mb 0.00 in0.0 mm 0.00 in/hr0.0 mm/hr 0.04 in1.0 mm
08:00 AM 72.1°F22.3°C 68.7°F20.4°C 89% 1.0 mph S1.6 kmh S 4.0 mph6.4 kmh 29.93 in1013.5 mb 0.00 in0.0 mm 0.00 in/hr0.0 mm/hr 0.04 in1.0 mm
07:45 AM 71.8°F22.1°C 68.4°F20.2°C 89% 2.0 mph SSW3.2 kmh SSW 3.0 mph4.8 kmh 29.93 in1013.5 mb 0.00 in0.0 mm 0.00 in/hr0.0 mm/hr 0.04 in1.0 mm
07:30 AM 71.2°F21.8°C 68.2°F20.1°C 90% 5.0 mph SW8.0 kmh SW 12.0 mph19.3 kmh 29.92 in1013.2 mb 0.01 in0.3 mm 0.00 in/hr0.0 mm/hr 0.04 in1.0 mm
07:15 AM 71.2°F21.8°C 68.5°F20.3°C 91% 2.0 mph SSW3.2 kmh SSW 10.0 mph16.1 kmh 29.92 in1013.2 mb 0.01 in0.3 mm 0.00 in/hr0.0 mm/hr 0.04 in1.0 mm
07:00 AM 71.8°F22.1°C 69.0°F20.6°C 91% 2.0 mph SSW3.2 kmh SSW 4.0 mph6.4 kmh 29.93 in1013.5 mb 0.01 in0.3 mm 0.00 in/hr0.0 mm/hr 0.04 in1.0 mm
06:45 AM 72.0°F22.2°C 69.2°F20.7°C 91% 2.0 mph SSW3.2 kmh SSW 4.0 mph6.4 kmh 29.94 in1013.9 mb 0.01 in0.3 mm 0.00 in/hr0.0 mm/hr 0.04 in1.0 mm
06:30 AM 72.0°F22.2°C 69.2°F20.7°C 91% 2.0 mph S3.2 kmh S 6.0 mph9.7 kmh 29.94 in1013.9 mb 0.01 in0.3 mm 0.00 in/hr0.0 mm/hr 0.03 in0.8 mm
06:15 AM 71.8°F22.1°C 69.0°F20.6°C 91% Calm Calm 3.0 mph4.8 kmh 29.92 in1013.2 mb 0.03 in0.8 mm 0.00 in/hr0.0 mm/hr 0.03 in0.8 mm
06:00 AM 72.0°F22.2°C 68.9°F20.5°C 90% 1.0 mph S1.6 kmh S -- 29.92 in1013.2 mb 0.03 in0.8 mm 0.00 in/hr0.0 mm/hr 0.03 in0.8 mm
05:45 AM 72.1°F22.3°C 69.0°F20.6°C 90% 2.0 mph S3.2 kmh S 4.0 mph6.4 kmh 29.92 in1013.2 mb 0.03 in0.8 mm 0.04 in/hr1.0 mm/hr 0.03 in0.8 mm
05:30 AM 72.1°F22.3°C 68.4°F20.2°C 88% 3.0 mph SSW4.8 kmh SSW 7.0 mph11.3 kmh 29.92 in1013.2 mb 0.02 in0.5 mm 0.08 in/hr2.0 mm/hr 0.02 in0.5 mm
05:15 AM 72.1°F22.3°C 68.1°F20.1°C 87% 5.0 mph SW8.0 kmh SW 8.0 mph12.9 kmh 29.91 in1012.9 mb 0.00 in0.0 mm 0.00 in/hr0.0 mm/hr 0.00 in0.0 mm
05:00 AM 72.3°F22.4°C 68.6°F20.3°C 88% 3.0 mph SSW4.8 kmh SSW 6.0 mph9.7 kmh 29.91 in1012.9 mb 0.00 in0.0 mm 0.00 in/hr0.0 mm/hr 0.00 in0.0 mm
04:45 AM 72.3°F22.4°C 67.9°F19.9°C 86% 2.0 mph S3.2 kmh S 9.0 mph14.5 kmh 29.90 in1012.5 mb 0.00 in0.0 mm 0.00 in/hr0.0 mm/hr 0.00 in0.0 mm
04:30 AM 72.3°F22.4°C 67.9°F19.9°C 86% 1.0 mph S1.6 kmh S 5.0 mph8.0 kmh 29.90 in1012.5 mb 0.00 in0.0 mm 0.00 in/hr0.0 mm/hr 0.00 in0.0 mm
04:15 AM 72.7°F22.6°C 68.2°F20.1°C 86% 2.0 mph S3.2 kmh S 8.0 mph12.9 kmh 29.89 in1012.2 mb 0.00 in0.0 mm 0.00 in/hr0.0 mm/hr 0.00 in0.0 mm
04:00 AM 72.9°F22.7°C 68.1°F20.1°C 85% 1.0 mph SSE1.6 kmh SSE 8.0 mph12.9 kmh 29.89 in1012.2 mb 0.00 in0.0 mm 0.00 in/hr0.0 mm/hr 0.00 in0.0 mm
03:45 AM 72.9°F22.7°C 67.7°F19.8°C 84% 1.0 mph SSE1.6 kmh SSE 2.0 mph3.2 kmh 29.90 in1012.5 mb 0.00 in0.0 mm 0.00 in/hr0.0 mm/hr 0.00 in0.0 mm
03:30 AM 72.9°F22.7°C 67.7°F19.8°C 84% 1.0 mph SSE1.6 kmh SSE 3.0 mph4.8 kmh 29.90 in1012.5 mb 0.00 in0.0 mm 0.00 in/hr0.0 mm/hr 0.00 in0.0 mm
03:15 AM 73.0°F22.8°C 67.6°F19.8°C 83% Calm Calm 4.0 mph6.4 kmh 29.90 in1012.5 mb 0.00 in0.0 mm 0.00 in/hr0.0 mm/hr 0.00 in0.0 mm
03:00 AM 73.0°F22.8°C 67.6°F19.8°C 83% 1.0 mph SSE1.6 kmh SSE 2.0 mph3.2 kmh 29.90 in1012.5 mb 0.00 in0.0 mm 0.00 in/hr0.0 mm/hr 0.00 in0.0 mm
02:45 AM 72.9°F22.7°C 67.7°F19.8°C 84% 2.0 mph SSE3.2 kmh SSE 4.0 mph6.4 kmh 29.90 in1012.5 mb 0.00 in0.0 mm 0.00 in/hr0.0 mm/hr 0.00 in0.0 mm
02:30 AM 72.7°F22.6°C 67.6°F19.8°C 84% 2.0 mph SSE3.2 kmh SSE 4.0 mph6.4 kmh 29.89 in1012.2 mb 0.00 in0.0 mm 0.00 in/hr0.0 mm/hr 0.00 in0.0 mm
02:15 AM 72.9°F22.7°C 68.4°F20.2°C 86% 1.0 mph S1.6 kmh S 3.0 mph4.8 kmh 29.89 in1012.2 mb 0.00 in0.0 mm 0.00 in/hr0.0 mm/hr 0.00 in0.0 mm
02:00 AM 72.9°F22.7°C 68.1°F20.1°C 85% 2.0 mph SSE3.2 kmh SSE 6.0 mph9.7 kmh 29.89 in1012.2 mb 0.00 in0.0 mm 0.00 in/hr0.0 mm/hr 0.00 in0.0 mm
01:45 AM 72.9°F22.7°C 68.1°F20.1°C 85% 1.0 mph SSE1.6 kmh SSE 7.0 mph11.3 kmh 29.88 in1011.9 mb 0.00 in0.0 mm 0.00 in/hr0.0 mm/hr 0.00 in0.0 mm
01:30 AM 72.9°F22.7°C 68.1°F20.1°C 85% 1.0 mph SSE1.6 kmh SSE 6.0 mph9.7 kmh 29.88 in1011.9 mb 0.00 in0.0 mm 0.00 in/hr0.0 mm/hr 0.00 in0.0 mm
01:15 AM 73.0°F22.8°C 68.9°F20.5°C 87% 2.0 mph SSE3.2 kmh SSE 7.0 mph11.3 kmh 29.87 in1011.5 mb 0.00 in0.0 mm 0.00 in/hr0.0 mm/hr 0.00 in0.0 mm
01:00 AM 73.0°F22.8°C 68.9°F20.5°C 87% 1.0 mph S1.6 kmh S 7.0 mph11.3 kmh 29.87 in1011.5 mb 0.00 in0.0 mm 0.00 in/hr0.0 mm/hr 0.00 in0.0 mm
12:45 AM 73.2°F22.9°C 69.1°F20.6°C 87% 1.0 mph S1.6 kmh S 3.0 mph4.8 kmh 29.86 in1011.2 mb 0.00 in0.0 mm 0.00 in/hr0.0 mm/hr 0.00 in0.0 mm
12:30 AM 73.0°F22.8°C 68.9°F20.5°C 87% 1.0 mph S1.6 kmh S 2.0 mph3.2 kmh 29.86 in1011.2 mb 0.00 in0.0 mm 0.00 in/hr0.0 mm/hr 0.00 in0.0 mm
12:15 AM 73.0°F22.8°C 68.9°F20.5°C 87% 2.0 mph S3.2 kmh S 7.0 mph11.3 kmh 29.86 in1011.2 mb 0.00 in0.0 mm 0.00 in/hr0.0 mm/hr 0.00 in0.0 mm
12:00 AM 72.9°F22.7°C 68.4°F20.2°C 86% 1.0 mph S1.6 kmh S 2.0 mph3.2 kmh 29.85 in1010.8 mb 0.00 in0.0 mm 0.00 in/hr0.0 mm/hr 0.00 in0.0 mm